Time;durP1;ratioP1;P1;durP2;ratioP2;P2;SDS_P1;SDS_P2;PMS_P1;PMS_P2;Temp;Humidity;BMP_temperature;BMP_pressure;BME280_temperature;BME280_humidity;BME280_pressure;Samples;Min_cycle;Max_cycle;Signal;HPM_P1;HPM_P2
2021/12/21 00:00:36;;;;;;;6.87;3.30;;;1.60;70.40;;;;;;4990924;28;20486;-75
2021/12/21 00:03:02;;;;;;;8.50;3.30;;;1.60;70.50;;;;;;4995361;28;20034;-74
2021/12/21 00:05:29;;;;;;;6.97;2.97;;;1.60;70.50;;;;;;4989733;28;20038;-74
2021/12/21 00:07:58;;;;;;;7.47;3.20;;;1.60;70.50;;;;;;4994184;28;20076;-75
2021/12/21 00:10:30;;;;;;;6.67;3.00;;;1.60;70.40;;;;;;4978663;28;20045;-75
2021/12/21 00:15:34;;;;;;;5.97;2.97;;;1.60;70.30;;;;;;4991034;28;20050;-75
2021/12/21 00:18:49;;;;;;;5.20;3.17;;;1.60;70.40;;;;;;4987767;28;20073;-74
2021/12/21 00:21:13;;;;;;;6.80;3.70;;;1.60;70.40;;;;;;4969473;28;20435;-75
2021/12/21 00:26:11;;;;;;;6.13;3.17;;;1.60;70.50;;;;;;4986819;28;20512;-75
2021/12/21 00:28:47;;;;;;;6.27;3.20;;;1.60;70.50;;;;;;4982548;28;20035;-75
2021/12/21 00:31:12;;;;;;;6.37;3.47;;;1.60;70.50;;;;;;4980664;28;20066;-74
2021/12/21 00:33:41;;;;;;;7.20;3.50;;;1.60;70.40;;;;;;4987414;28;20050;-75
2021/12/21 00:36:08;;;;;;;6.33;3.17;;;1.60;70.30;;;;;;4994115;28;20442;-74
2021/12/21 00:38:34;;;;;;;5.80;3.50;;;1.50;70.10;;;;;;4976231;28;20121;-75
2021/12/21 00:41:00;;;;;;;4.73;2.47;;;1.50;70.10;;;;;;4981141;28;20482;-75
2021/12/21 00:43:27;;;;;;;5.53;3.60;;;1.50;70.10;;;;;;4960287;28;20047;-74
2021/12/21 00:45:52;;;;;;;6.03;3.20;;;1.50;70.20;;;;;;4976513;28;20134;-75
2021/12/21 00:48:18;;;;;;;7.20;3.40;;;1.50;70.10;;;;;;4987940;28;20486;-74
2021/12/21 00:50:45;;;;;;;6.00;3.33;;;1.50;70.20;;;;;;4965478;28;20053;-75
2021/12/21 00:53:11;;;;;;;6.50;3.40;;;1.50;70.20;;;;;;4988680;28;20035;-75
2021/12/21 00:55:37;;;;;;;6.40;3.40;;;1.50;70.20;;;;;;4975272;28;20498;-75
2021/12/21 00:58:03;;;;;;;6.90;3.73;;;1.50;70.30;;;;;;4976196;28;20039;-73
2021/12/21 01:00:28;;;;;;;7.57;3.53;;;1.50;70.30;;;;;;4982468;28;20085;-75
2021/12/21 01:02:57;;;;;;;7.77;3.40;;;1.50;70.30;;;;;;4981478;28;20034;-74
2021/12/21 01:05:33;;;;;;;9.53;3.50;;;1.50;70.30;;;;;;4981838;28;20047;-75
2021/12/21 01:08:01;;;;;;;7.30;3.40;;;1.40;70.30;;;;;;4986100;28;20078;-74
2021/12/21 01:10:47;;;;;;;7.03;3.20;;;1.50;70.40;;;;;;4980810;28;20086;-75
2021/12/21 01:13:45;;;;;;;6.13;3.17;;;1.40;70.20;;;;;;4981489;28;20078;-74
2021/12/21 01:16:12;;;;;;;5.73;3.13;;;1.40;70.10;;;;;;4986628;28;20130;-75
2021/12/21 01:18:52;;;;;;;6.73;3.87;;;1.40;70.20;;;;;;4977591;28;20043;-75
2021/12/21 01:21:21;;;;;;;5.27;3.30;;;1.40;70.30;;;;;;4991329;28;20117;-75
2021/12/21 01:26:41;;;;;;;7.30;3.30;;;1.30;70.10;;;;;;4980053;28;20105;-74
2021/12/21 01:29:22;;;;;;;6.07;3.40;;;1.30;70.10;;;;;;4994991;28;20121;-74
2021/12/21 01:32:02;;;;;;;5.50;3.40;;;1.30;70.00;;;;;;4994613;28;20046;-74
2021/12/21 01:37:04;;;;;;;6.43;4.00;;;1.30;70.00;;;;;;4990911;28;20402;-75
2021/12/21 01:50:08;;;;;;;6.55;4.00;;;1.20;70.20;;;;;;4980185;28;20047;-75
2021/12/21 01:52:34;;;;;;;6.10;3.27;;;1.20;69.70;;;;;;4993311;28;20117;-74
2021/12/21 01:54:59;;;;;;;7.13;4.00;;;1.10;69.60;;;;;;4986625;28;20042;-74
2021/12/21 01:57:25;;;;;;;6.87;3.70;;;1.10;69.70;;;;;;4994090;28;20069;-74
2021/12/21 01:59:51;;;;;;;6.67;3.37;;;1.10;69.50;;;;;;4995526;28;20046;-75
2021/12/21 02:02:19;;;;;;;6.73;3.63;;;1.10;69.60;;;;;;4994300;28;20046;-75
2021/12/21 02:04:45;;;;;;;7.87;3.80;;;1.10;69.70;;;;;;4990325;28;20053;-75
2021/12/21 02:07:12;;;;;;;6.70;3.60;;;1.10;69.90;;;;;;4995414;28;20046;-75
2021/12/21 02:09:38;;;;;;;8.63;3.77;;;1.10;70.00;;;;;;4994204;28;20042;-75
2021/12/21 02:12:05;;;;;;;9.00;4.20;;;1.10;69.90;;;;;;4993922;28;20038;-75
2021/12/21 02:14:32;;;;;;;7.27;4.53;;;1.10;70.00;;;;;;4991317;28;20050;-75
2021/12/21 02:20:14;;;;;;;9.20;4.30;;;1.10;70.00;;;;;;4939015;29;20051;-75
2021/12/21 02:22:46;;;;;;;5.77;3.70;;;1.00;69.80;;;;;;4938100;29;20078;-75
2021/12/21 02:25:37;;;;;;;7.20;3.80;;;1.00;69.70;;;;;;4927406;29;20056;-76
2021/12/21 02:30:48;;;;;;;7.00;4.60;;;1.00;69.60;;;;;;4938058;29;20439;-75
2021/12/21 02:33:14;;;;;;;7.47;4.27;;;1.00;69.80;;;;;;4953195;29;20179;-75
2021/12/21 02:35:40;;;;;;;6.47;3.80;;;1.00;69.80;;;;;;4945933;29;20047;-75
2021/12/21 02:38:06;;;;;;;6.27;3.80;;;0.90;69.90;;;;;;4935365;29;20118;-76
2021/12/21 02:40:33;;;;;;;8.20;3.50;;;1.00;69.90;;;;;;4953062;29;20074;-75
2021/12/21 02:42:58;;;;;;;7.17;3.73;;;1.00;70.00;;;;;;4953952;29;20043;-75
2021/12/21 02:45:24;;;;;;;6.77;3.80;;;0.90;69.80;;;;;;4951388;29;20229;-75
2021/12/21 02:47:50;;;;;;;7.97;3.97;;;1.00;69.80;;;;;;4952155;29;20418;-75
2021/12/21 02:50:16;;;;;;;8.23;3.93;;;0.90;69.80;;;;;;4951433;29;20052;-75
2021/12/21 02:52:42;;;;;;;6.27;3.53;;;0.90;69.70;;;;;;4937460;29;20118;-76
2021/12/21 02:55:08;;;;;;;9.80;4.00;;;0.90;69.60;;;;;;4940581;29;20446;-75
2021/12/21 02:57:34;;;;;;;5.27;3.20;;;0.90;69.60;;;;;;4974522;28;20093;-76
2021/12/21 03:00:01;;;;;;;7.80;3.70;;;0.90;69.70;;;;;;4991063;28;20038;-75
2021/12/21 03:02:28;;;;;;;7.43;3.93;;;0.90;69.80;;;;;;4982775;28;20057;-75
2021/12/21 03:04:54;;;;;;;5.67;3.40;;;0.90;70.30;;;;;;4982173;28;20085;-75
2021/12/21 03:10:10;;;;;;;6.20;3.38;;;0.90;70.10;;;;;;4993158;28;20474;-75
2021/12/21 03:15:29;;;;;;;6.90;3.53;;;0.90;70.00;;;;;;4990458;28;20057;-76
2021/12/21 03:17:56;;;;;;;9.30;3.67;;;0.90;70.00;;;;;;4975551;28;20089;-75
2021/12/21 03:20:23;;;;;;;7.40;3.80;;;0.90;69.80;;;;;;4992504;28;20056;-75
2021/12/21 03:22:50;;;;;;;7.03;3.50;;;0.90;69.70;;;;;;4994828;28;20043;-75
2021/12/21 03:25:15;;;;;;;10.30;3.70;;;0.90;69.70;;;;;;4994670;28;20565;-75
2021/12/21 03:27:41;;;;;;;6.63;4.07;;;0.90;69.80;;;;;;4980276;28;20046;-75
2021/12/21 03:30:10;;;;;;;7.03;3.60;;;0.80;69.80;;;;;;4995082;28;20482;-75
2021/12/21 03:32:36;;;;;;;7.80;3.97;;;0.90;69.80;;;;;;4978042;28;20046;-76
2021/12/21 03:35:01;;;;;;;6.00;3.30;;;0.90;69.90;;;;;;4993078;28;20043;-75
2021/12/21 03:37:27;;;;;;;7.00;3.60;;;0.80;70.00;;;;;;4978456;28;20055;-75
2021/12/21 03:39:54;;;;;;;7.13;3.80;;;0.90;70.10;;;;;;4975851;28;20050;-75
2021/12/21 03:42:21;;;;;;;6.00;3.37;;;0.90;70.00;;;;;;4980648;28;20093;-76
2021/12/21 03:44:47;;;;;;;5.63;3.30;;;0.80;70.00;;;;;;4992223;28;20383;-75
2021/12/21 03:47:16;;;;;;;6.63;3.67;;;0.80;70.00;;;;;;4980333;28;20121;-74
2021/12/21 03:52:14;;;;;;;6.17;2.90;;;0.80;70.00;;;;;;4980262;28;20049;-75
2021/12/21 03:54:43;;;;;;;5.83;3.43;;;0.80;70.00;;;;;;4977146;28;20054;-75
2021/12/21 03:57:09;;;;;;;5.83;3.53;;;0.80;70.00;;;;;;4989635;28;20134;-75
2021/12/21 03:59:35;;;;;;;5.87;3.53;;;0.80;69.90;;;;;;4991427;28;20050;-76
2021/12/21 04:02:00;;;;;;;7.83;3.73;;;0.80;69.70;;;;;;4993597;28;20069;-74
2021/12/21 04:04:26;;;;;;;8.27;3.53;;;0.80;69.60;;;;;;4986834;28;20495;-77
2021/12/21 04:06:52;;;;;;;6.50;3.77;;;0.80;69.60;;;;;;4976622;28;20050;-77
2021/12/21 04:09:18;;;;;;;7.23;3.50;;;0.80;69.40;;;;;;4986900;28;20038;-77
2021/12/21 04:11:44;;;;;;;7.63;3.60;;;0.80;69.20;;;;;;4994597;28;20039;-77
2021/12/21 04:14:11;;;;;;;4.77;3.40;;;0.70;68.90;;;;;;4991704;28;20037;-76
2021/12/21 04:16:37;;;;;;;6.43;4.07;;;0.70;69.00;;;;;;4993478;28;20061;-77
2021/12/21 04:19:03;;;;;;;7.47;3.67;;;0.70;69.00;;;;;;4987495;28;20566;-77
2021/12/21 04:21:28;;;;;;;6.77;3.80;;;0.60;68.90;;;;;;4979406;28;20043;-77
2021/12/21 04:23:54;;;;;;;10.87;3.97;;;0.60;69.00;;;;;;4977490;28;20041;-77
2021/12/21 04:26:20;;;;;;;14.07;7.67;;;0.60;69.10;;;;;;4993964;28;20539;-77
2021/12/21 04:28:46;;;;;;;19.63;10.40;;;0.60;69.20;;;;;;4989917;28;20097;-77
2021/12/21 04:31:12;;;;;;;19.97;11.10;;;0.60;69.20;;;;;;4985496;28;20060;-76
2021/12/21 04:33:42;;;;;;;17.60;9.50;;;0.60;69.20;;;;;;4989586;28;20050;-77
2021/12/21 04:36:08;;;;;;;13.17;8.50;;;0.60;69.40;;;;;;4993777;28;20394;-77
2021/12/21 04:38:38;;;;;;;13.13;7.63;;;0.60;69.50;;;;;;4992557;28;20046;-76
2021/12/21 04:41:28;;;;;;;16.47;8.63;;;0.60;69.50;;;;;;4985142;28;20054;-77
2021/12/21 04:43:56;;;;;;;15.57;8.37;;;0.60;69.60;;;;;;4978532;28;20173;-77
2021/12/21 04:46:23;;;;;;;11.20;7.47;;;0.60;69.70;;;;;;4982638;28;20061;-77
2021/12/21 04:48:49;;;;;;;14.03;7.77;;;0.60;69.70;;;;;;4979879;28;20475;-77
2021/12/21 04:51:15;;;;;;;11.57;6.57;;;0.60;69.70;;;;;;4993836;28;20054;-77
2021/12/21 04:53:41;;;;;;;12.23;6.97;;;0.50;69.70;;;;;;4996725;28;20047;-75
2021/12/21 04:56:07;;;;;;;14.50;7.43;;;0.50;69.50;;;;;;4976319;28;20046;-77
2021/12/21 04:58:33;;;;;;;10.40;6.23;;;0.50;69.60;;;;;;4959588;28;20038;-77
2021/12/21 05:00:59;;;;;;;8.83;5.60;;;0.50;69.70;;;;;;4990516;28;20482;-78
2021/12/21 05:03:25;;;;;;;13.30;6.60;;;0.50;69.70;;;;;;4994546;28;20089;-77
2021/12/21 05:05:51;;;;;;;9.97;6.00;;;0.50;70.10;;;;;;4978114;28;20045;-77
2021/12/21 05:08:24;;;;;;;10.87;5.10;;;0.50;69.80;;;;;;4990297;28;20046;-78
2021/12/21 05:10:54;;;;;;;8.87;5.13;;;0.50;69.80;;;;;;4980770;28;20146;-77
2021/12/21 05:13:23;;;;;;;10.17;5.63;;;0.50;69.70;;;;;;4974983;28;20438;-78
2021/12/21 05:15:49;;;;;;;9.87;5.70;;;0.50;69.70;;;;;;4976992;28;20402;-78
2021/12/21 05:18:16;;;;;;;7.70;5.10;;;0.50;69.70;;;;;;4989073;28;20054;-78
2021/12/21 05:20:42;;;;;;;8.73;5.07;;;0.50;69.80;;;;;;4966596;28;20050;-78
2021/12/21 05:23:09;;;;;;;8.97;4.90;;;0.50;69.80;;;;;;4991450;28;20047;-78
2021/12/21 05:25:36;;;;;;;9.67;5.40;;;0.50;69.80;;;;;;4967467;28;20056;-77
2021/12/21 05:28:02;;;;;;;8.77;4.70;;;0.50;70.20;;;;;;4974971;28;20051;-78
2021/12/21 05:30:27;;;;;;;8.17;4.30;;;0.50;69.70;;;;;;4982991;28;20049;-78
2021/12/21 05:32:55;;;;;;;8.90;5.23;;;0.50;69.60;;;;;;4992368;28;20038;-78
2021/12/21 05:35:22;;;;;;;9.80;4.70;;;0.50;69.60;;;;;;4990690;28;20078;-78
2021/12/21 05:37:50;;;;;;;10.43;5.30;;;0.50;69.60;;;;;;4979785;28;20054;-78
2021/12/21 05:40:17;;;;;;;7.93;4.60;;;0.50;69.70;;;;;;4985065;28;20450;-78
2021/12/21 05:42:45;;;;;;;8.93;5.20;;;0.40;69.60;;;;;;4975438;28;20054;-77
2021/12/21 05:45:17;;;;;;;11.50;5.07;;;0.40;69.60;;;;;;4976497;28;20422;-77
2021/12/21 05:47:44;;;;;;;10.40;5.07;;;0.40;69.90;;;;;;4974720;28;20047;-78
2021/12/21 05:50:15;;;;;;;8.83;4.90;;;0.40;69.60;;;;;;4979857;28;20046;-75
2021/12/21 05:52:41;;;;;;;10.03;5.00;;;0.40;70.10;;;;;;4994193;28;20038;-78
2021/12/21 05:55:07;;;;;;;9.67;4.90;;;0.40;69.60;;;;;;4975369;28;20049;-77
2021/12/21 05:57:33;;;;;;;9.13;5.13;;;0.40;69.60;;;;;;4988619;28;20130;-77
2021/12/21 05:59:58;;;;;;;10.37;5.03;;;0.40;69.60;;;;;;4993968;28;20122;-78
2021/12/21 06:02:24;;;;;;;9.07;5.17;;;0.40;69.60;;;;;;4980560;28;20039;-78
2021/12/21 06:04:50;;;;;;;8.87;5.57;;;0.40;69.60;;;;;;4978847;28;20054;-77
2021/12/21 06:07:16;;;;;;;9.27;5.10;;;0.40;69.60;;;;;;4979812;28;20046;-77
2021/12/21 06:09:45;;;;;;;10.33;6.03;;;0.40;69.60;;;;;;4991895;28;20050;-78
2021/12/21 06:12:18;;;;;;;9.50;5.50;;;0.40;69.60;;;;;;4985892;28;20082;-77
2021/12/21 06:23:05;;;;;;;9.77;5.47;;;0.30;68.40;;;;;;4992889;28;19922;-77
2021/12/21 06:25:40;;;;;;;6.90;4.57;;;0.30;68.70;;;;;;4977991;28;20047;-77
2021/12/21 06:28:07;;;;;;;;;;;0.20;68.50;;;;;;4988171;28;20512;-77
2021/12/21 06:30:33;;;;;;;8.10;5.20;;;0.20;68.50;;;;;;4990307;28;19925;-77
2021/12/21 06:32:59;;;;;;;8.57;5.07;;;0.20;68.90;;;;;;4992485;28;20046;-77
2021/12/21 06:35:25;;;;;;;7.97;5.50;;;0.20;69.00;;;;;;4978996;28;20478;-77
2021/12/21 06:37:51;;;;;;;9.93;5.80;;;0.20;69.20;;;;;;4988330;28;20066;-77
2021/12/21 06:40:17;;;;;;;10.00;6.00;;;0.20;69.30;;;;;;4990543;28;20041;-77
2021/12/21 06:42:45;;;;;;;8.47;5.17;;;0.20;69.30;;;;;;4978314;28;20039;-77
2021/12/21 06:45:24;;;;;;;10.43;6.07;;;0.20;69.20;;;;;;4986447;28;20085;-77
2021/12/21 06:53:19;;;;;;;10.95;5.70;;;0.20;69.20;;;;;;4977796;28;20054;-77
2021/12/21 06:55:44;;;;;;;10.03;6.07;;;0.20;69.20;;;;;;4969403;28;20129;-77
2021/12/21 06:58:10;;;;;;;9.77;6.20;;;0.20;69.20;;;;;;4978377;28;20034;-77
2021/12/21 07:00:36;;;;;;;9.27;5.80;;;0.10;69.40;;;;;;4987759;28;20042;-77
2021/12/21 07:03:01;;;;;;;7.93;5.90;;;0.20;69.00;;;;;;4992761;28;20046;-77
2021/12/21 07:05:28;;;;;;;11.47;5.57;;;0.10;69.10;;;;;;4992100;28;20101;-77
2021/12/21 07:07:54;;;;;;;11.53;6.70;;;0.20;69.20;;;;;;4988791;28;20057;-76
2021/12/21 07:10:24;;;;;;;10.23;7.37;;;0.10;69.10;;;;;;4980073;28;20043;-76
2021/12/21 07:20:27;;;;;;;9.93;6.60;;;-0.10;67.50;;;;;;4994285;28;20074;-77
2021/12/21 07:22:52;;;;;;;9.43;6.30;;;-0.10;67.90;;;;;;4968758;28;20047;-77
2021/12/21 07:25:18;;;;;;;8.93;6.40;;;-0.10;68.20;;;;;;4976818;28;20046;-77
2021/12/21 07:27:44;;;;;;;10.90;6.80;;;-0.10;68.40;;;;;;4984249;28;20497;-77
2021/12/21 07:30:10;;;;;;;8.70;6.57;;;-0.10;68.70;;;;;;4985802;28;20046;-77
2021/12/21 07:32:36;;;;;;;11.53;6.23;;;-0.10;68.80;;;;;;4980587;28;20038;-78
2021/12/21 07:35:03;;;;;;;10.07;6.73;;;-0.10;69.00;;;;;;4978747;28;20458;-77
2021/12/21 07:37:29;;;;;;;10.40;6.90;;;-0.10;69.00;;;;;;4991863;28;20077;-78
2021/12/21 07:39:55;;;;;;;8.47;6.67;;;-0.10;69.00;;;;;;4977799;28;20453;-77
2021/12/21 07:42:21;;;;;;;9.67;6.63;;;-0.10;69.10;;;;;;4978766;28;20045;-77
2021/12/21 07:44:48;;;;;;;9.47;6.60;;;-0.10;69.30;;;;;;4995853;28;20038;-76
2021/12/21 07:47:14;;;;;;;12.60;6.67;;;-0.10;69.20;;;;;;4990858;28;20038;-77
2021/12/21 07:49:40;;;;;;;12.73;6.37;;;-0.10;69.20;;;;;;4995227;28;20038;-77
2021/12/21 07:52:07;;;;;;;11.57;6.87;;;-0.10;69.20;;;;;;4976891;28;20042;-77
2021/12/21 07:54:34;;;;;;;10.20;7.67;;;-0.10;69.40;;;;;;4960625;28;20086;-77
2021/12/21 07:57:00;;;;;;;9.40;6.70;;;-0.10;69.30;;;;;;4959684;28;20050;-76
2021/12/21 07:59:26;;;;;;;12.47;6.97;;;-0.10;69.30;;;;;;4965809;28;20133;-75
2021/12/21 08:01:53;;;;;;;8.57;6.27;;;-0.10;69.30;;;;;;4991859;28;20506;-77
2021/12/21 08:04:21;;;;;;;8.83;6.93;;;-0.10;69.30;;;;;;4970185;28;20054;-76
2021/12/21 08:06:49;;;;;;;12.40;7.07;;;-0.10;69.30;;;;;;4987848;28;20054;-77
2021/12/21 08:09:15;;;;;;;12.70;7.17;;;0.00;69.40;;;;;;4981633;28;20057;-76
2021/12/21 08:14:06;;;;;;;12.77;8.20;;;-0.10;69.20;;;;;;4988712;28;20050;-77
2021/12/21 08:16:33;;;;;;;12.37;6.90;;;0.00;69.40;;;;;;4978699;28;20062;-76
2021/12/21 08:18:58;;;;;;;8.40;6.30;;;0.00;69.40;;;;;;4981673;28;20051;-76
2021/12/21 08:21:25;;;;;;;11.47;7.57;;;0.00;69.30;;;;;;4984266;28;20112;-76
2021/12/21 08:23:51;;;;;;;11.10;6.73;;;0.00;69.20;;;;;;4982080;28;20510;-76
2021/12/21 08:26:17;;;;;;;11.17;6.70;;;0.00;69.20;;;;;;4978978;28;20046;-77
2021/12/21 08:28:43;;;;;;;11.07;6.83;;;0.00;69.20;;;;;;4975817;28;20057;-76
2021/12/21 08:31:11;;;;;;;9.93;6.43;;;0.00;69.20;;;;;;4978947;28;20047;-77
2021/12/21 08:33:37;;;;;;;9.00;6.27;;;0.00;69.00;;;;;;4972284;28;20050;-76
2021/12/21 08:36:05;;;;;;;9.83;6.70;;;0.00;68.90;;;;;;4960024;28;20161;-76
2021/12/21 08:38:32;;;;;;;13.70;6.70;;;0.00;68.90;;;;;;4988541;28;20047;-77
2021/12/21 08:40:59;;;;;;;12.33;6.23;;;0.00;68.70;;;;;;4985489;28;20076;-76
2021/12/21 08:43:28;;;;;;;10.40;6.93;;;0.00;68.60;;;;;;4974140;28;20734;-75
2021/12/21 08:45:55;;;;;;;11.83;6.67;;;0.00;68.60;;;;;;4964905;28;20054;-76
2021/12/21 08:48:22;;;;;;;10.83;6.30;;;0.00;68.60;;;;;;4977524;28;20066;-76
2021/12/21 08:50:50;;;;;;;10.13;6.67;;;0.00;68.60;;;;;;4973883;28;20042;-76
2021/12/21 08:53:16;;;;;;;12.67;6.90;;;0.10;68.70;;;;;;4973419;28;20051;-76
2021/12/21 08:55:43;;;;;;;13.13;7.13;;;0.10;68.80;;;;;;4974541;28;20038;-76
2021/12/21 08:58:10;;;;;;;14.17;7.90;;;0.10;68.80;;;;;;4978370;28;20050;-76
2021/12/21 09:00:37;;;;;;;14.43;8.77;;;0.10;69.00;;;;;;4960338;28;20050;-75
2021/12/21 09:03:04;;;;;;;11.17;7.50;;;0.10;69.00;;;;;;4976552;28;20035;-76
2021/12/21 09:05:31;;;;;;;12.20;7.60;;;0.10;69.00;;;;;;4958959;28;20085;-76
2021/12/21 09:07:59;;;;;;;12.77;7.30;;;0.10;69.00;;;;;;4981352;28;20505;-76
2021/12/21 09:10:26;;;;;;;13.70;8.07;;;0.20;69.20;;;;;;4977932;28;20042;-76
2021/12/21 09:12:52;;;;;;;11.57;7.90;;;0.20;69.30;;;;;;4979519;28;20046;-76
2021/12/21 09:15:20;;;;;;;14.20;8.00;;;0.20;69.40;;;;;;4978382;28;20398;-76
2021/12/21 09:17:47;;;;;;;11.37;7.80;;;0.20;69.50;;;;;;4977568;28;20483;-76
2021/12/21 09:20:15;;;;;;;11.63;7.80;;;0.20;69.60;;;;;;4979190;28;20059;-76
2021/12/21 09:22:41;;;;;;;12.37;7.90;;;0.30;69.80;;;;;;4982342;28;20038;-75
2021/12/21 09:25:08;;;;;;;10.07;7.83;;;0.30;69.80;;;;;;4982300;28;20088;-76
2021/12/21 09:27:34;;;;;;;15.20;9.53;;;0.40;69.90;;;;;;4981702;28;20062;-76
2021/12/21 09:30:00;;;;;;;14.27;8.97;;;0.40;70.00;;;;;;4979101;28;20050;-76
2021/12/21 09:32:26;;;;;;;11.67;8.57;;;0.40;70.20;;;;;;4963455;28;20043;-76
2021/12/21 09:34:52;;;;;;;12.40;9.40;;;0.50;70.40;;;;;;4981773;28;20435;-76
2021/12/21 09:37:20;;;;;;;12.83;7.63;;;0.50;70.60;;;;;;4980697;28;20047;-77
2021/12/21 09:39:49;;;;;;;13.57;8.77;;;0.60;70.70;;;;;;4988082;28;20556;-77
2021/12/21 09:42:18;;;;;;;13.50;8.30;;;0.70;70.80;;;;;;4976648;28;20180;-76
2021/12/21 09:44:43;;;;;;;13.70;8.13;;;0.70;70.80;;;;;;4989981;28;20085;-76
2021/12/21 09:47:11;;;;;;;15.47;8.93;;;0.80;70.90;;;;;;4965273;28;20054;-76
2021/12/21 09:49:38;;;;;;;10.97;8.00;;;0.90;70.90;;;;;;4975413;28;20054;-76
2021/12/21 09:52:07;;;;;;;13.70;9.47;;;0.90;70.90;;;;;;4981102;28;20070;-76
2021/12/21 09:54:34;;;;;;;16.70;10.27;;;1.00;71.00;;;;;;4986239;28;20108;-76
2021/12/21 09:57:00;;;;;;;17.50;11.40;;;1.10;71.00;;;;;;4974350;28;20062;-76
2021/12/21 09:59:26;;;;;;;18.00;10.80;;;1.20;71.10;;;;;;4960120;28;20674;-76
2021/12/21 10:01:52;;;;;;;17.13;10.60;;;1.30;71.10;;;;;;4991171;28;20057;-75
2021/12/21 10:04:19;;;;;;;16.87;10.80;;;1.40;71.10;;;;;;4986299;28;20049;-76
2021/12/21 10:06:47;;;;;;;18.07;11.03;;;1.50;71.10;;;;;;4975627;28;20121;-76
2021/12/21 10:09:14;;;;;;;14.73;10.57;;;1.60;71.20;;;;;;4977658;28;20050;-75
2021/12/21 10:11:44;;;;;;;15.43;10.43;;;1.70;71.10;;;;;;4991333;28;20053;-75
2021/12/21 10:14:10;;;;;;;15.60;11.17;;;1.70;71.10;;;;;;4993381;28;20383;-76
2021/12/21 10:16:36;;;;;;;15.00;11.60;;;1.80;71.00;;;;;;4977612;28;20060;-76
2021/12/21 10:19:05;;;;;;;14.90;11.07;;;1.90;71.10;;;;;;4982441;28;20058;-76
2021/12/21 10:21:30;;;;;;;15.47;10.97;;;2.00;71.20;;;;;;4975421;28;20105;-76
2021/12/21 10:23:57;;;;;;;14.93;9.47;;;2.00;71.20;;;;;;4970720;28;20086;-76
2021/12/21 10:26:25;;;;;;;15.50;9.57;;;2.10;71.20;;;;;;4963817;28;20062;-75
2021/12/21 10:28:56;;;;;;;15.50;9.37;;;2.10;71.20;;;;;;4974344;28;20051;-75
2021/12/21 10:31:36;;;;;;;15.13;9.30;;;2.20;71.20;;;;;;4974479;28;20062;-75
2021/12/21 10:34:05;;;;;;;12.53;9.47;;;2.30;71.20;;;;;;4974444;28;20205;-75
2021/12/21 10:36:31;;;;;;;15.27;9.20;;;2.30;71.20;;;;;;4980408;28;20544;-75
2021/12/21 10:38:59;;;;;;;15.00;9.90;;;2.40;71.20;;;;;;4971623;28;20069;-75
2021/12/21 10:41:42;;;;;;;17.30;10.93;;;2.40;71.20;;;;;;4983323;28;20116;-76
2021/12/21 10:44:11;;;;;;;13.23;10.73;;;2.50;71.30;;;;;;4974311;28;20050;-74
2021/12/21 10:46:39;;;;;;;16.30;10.67;;;2.50;71.30;;;;;;4977066;28;20086;-73
2021/12/21 10:49:15;;;;;;;15.70;10.73;;;2.60;71.30;;;;;;4973351;28;20150;-74
2021/12/21 10:52:00;;;;;;;16.57;10.60;;;2.70;71.30;;;;;;4981808;28;20050;-75
2021/12/21 10:54:30;;;;;;;17.25;10.73;;;2.70;71.20;;;;;;4990850;28;20090;-75
2021/12/21 10:56:57;;;;;;;13.77;10.57;;;2.70;71.10;;;;;;4980412;28;20499;-74
2021/12/21 10:59:36;;;;;;;17.23;11.23;;;2.80;71.00;;;;;;4972937;28;20047;-75
2021/12/21 11:02:24;;;;;;;16.13;11.88;;;2.80;70.90;;;;;;4980678;28;20557;-75
2021/12/21 11:04:55;;;;;;;17.40;12.60;;;2.90;70.90;;;;;;4973999;28;20051;-75
2021/12/21 11:07:38;;;;;;;16.45;11.57;;;2.90;70.90;;;;;;4967720;28;20074;-74
2021/12/21 11:10:11;;;;;;;15.90;12.07;;;2.90;70.90;;;;;;4990180;28;20108;-75
2021/12/21 11:12:46;;;;;;;16.80;11.97;;;3.00;70.90;;;;;;4989105;28;20058;-76
2021/12/21 11:15:18;;;;;;;18.92;11.82;;;3.00;70.90;;;;;;4980287;28;20038;-75
2021/12/21 11:17:44;;;;;;;15.23;10.85;;;3.00;70.80;;;;;;4980142;28;20050;-75
2021/12/21 11:20:12;;;;;;;18.03;11.53;;;3.00;70.70;;;;;;4981101;28;20057;-75
2021/12/21 11:22:40;;;;;;;19.13;12.75;;;3.10;70.70;;;;;;4978131;28;20052;-75
2021/12/21 11:25:07;;;;;;;21.17;12.50;;;3.10;70.60;;;;;;4991679;28;20093;-75
2021/12/21 11:27:35;;;;;;;17.05;11.77;;;3.10;70.60;;;;;;4979906;28;20057;-75
2021/12/21 11:30:05;;;;;;;20.25;12.63;;;3.10;70.50;;;;;;4973976;28;20093;-75
2021/12/21 11:32:34;;;;;;;13.35;11.00;;;3.10;70.40;;;;;;4980911;28;20086;-75
2021/12/21 11:37:44;;;;;;;15.93;11.35;;;3.20;70.30;;;;;;4973033;28;20537;-75
2021/12/21 11:40:12;;;;;;;15.73;11.27;;;3.20;70.10;;;;;;4981490;28;20057;-75
2021/12/21 11:42:50;;;;;;;16.00;11.15;;;3.20;70.00;;;;;;4972972;28;20062;-75
2021/12/21 11:45:31;;;;;;;18.10;11.10;;;3.20;70.00;;;;;;4978697;28;20058;-74
2021/12/21 11:48:09;;;;;;;14.40;10.73;;;3.20;69.90;;;;;;4982679;28;20140;-75
2021/12/21 11:50:37;;;;;;;17.92;12.15;;;3.30;69.90;;;;;;4990366;28;20066;-75
2021/12/21 11:53:12;;;;;;;13.93;10.40;;;3.20;69.80;;;;;;4989816;28;20072;-75
2021/12/21 11:55:42;;;;;;;14.68;11.45;;;3.30;69.80;;;;;;4984211;28;20477;-75
2021/12/21 11:58:27;;;;;;;15.70;11.82;;;3.30;70.20;;;;;;4975313;28;20089;-74
2021/12/21 12:00:56;;;;;;;18.50;11.02;;;3.20;69.70;;;;;;4989542;28;20070;-74
2021/12/21 12:03:25;;;;;;;12.73;10.25;;;3.30;69.80;;;;;;4989380;28;20043;-74
2021/12/21 12:05:54;;;;;;;14.88;11.23;;;3.30;69.80;;;;;;4971549;28;20114;-75
2021/12/21 12:08:20;;;;;;;16.88;11.68;;;3.30;69.90;;;;;;4974883;28;20057;-74
2021/12/21 12:10:50;;;;;;;15.93;9.52;;;3.30;69.90;;;;;;4979310;28;20468;-75
2021/12/21 12:13:28;;;;;;;16.23;10.85;;;3.30;69.80;;;;;;4991286;28;20041;-74
2021/12/21 12:15:57;;;;;;;15.35;9.70;;;3.30;69.80;;;;;;4972979;28;20498;-75
2021/12/21 12:18:44;;;;;;;13.73;9.73;;;3.30;69.80;;;;;;4965859;28;20089;-74
2021/12/21 12:21:17;;;;;;;15.45;9.55;;;3.40;69.80;;;;;;4990960;28;20508;-75
2021/12/21 12:23:54;;;;;;;15.40;9.90;;;3.30;69.70;;;;;;4989308;28;20050;-75
2021/12/21 12:26:36;;;;;;;15.57;10.17;;;3.30;69.70;;;;;;4983790;28;20403;-74
2021/12/21 12:29:20;;;;;;;18.92;10.50;;;3.40;69.70;;;;;;4987054;28;20050;-75
2021/12/21 12:31:57;;;;;;;13.40;9.40;;;3.30;69.90;;;;;;4990738;28;20112;-74
2021/12/21 12:34:25;;;;;;;12.98;8.98;;;3.30;69.40;;;;;;4989226;28;20664;-75
2021/12/21 12:36:51;;;;;;;13.67;9.20;;;3.30;69.30;;;;;;4964834;28;20479;-75
2021/12/21 12:39:44;;;;;;;15.57;9.20;;;3.30;69.20;;;;;;4987825;28;20112;-75
2021/12/21 12:42:13;;;;;;;13.65;8.85;;;3.40;69.00;;;;;;4990351;28;20042;-75
2021/12/21 12:44:41;;;;;;;11.93;8.63;;;3.30;69.00;;;;;;4972510;28;20061;-75
2021/12/21 12:47:11;;;;;;;15.00;9.63;;;3.40;68.90;;;;;;4973406;28;20046;-74
2021/12/21 12:49:49;;;;;;;14.10;9.07;;;3.40;68.90;;;;;;4987749;28;20043;-75
2021/12/21 12:52:30;;;;;;;13.02;8.48;;;3.40;68.90;;;;;;4981776;28;20046;-74
2021/12/21 12:54:58;;;;;;;13.60;8.77;;;3.40;68.80;;;;;;4989298;28;20042;-76
2021/12/21 12:57:29;;;;;;;12.07;7.63;;;3.40;68.90;;;;;;4965382;28;20875;-74
2021/12/21 13:00:05;;;;;;;12.65;8.27;;;3.40;68.80;;;;;;4988263;28;20060;-75
2021/12/21 13:02:31;;;;;;;12.13;8.02;;;3.40;68.80;;;;;;4990584;28;20061;-75
2021/12/21 13:04:58;;;;;;;14.65;7.97;;;3.40;69.30;;;;;;4988645;28;20042;-75
2021/12/21 13:07:26;;;;;;;13.30;8.27;;;3.40;68.90;;;;;;4974064;28;20063;-75
2021/12/21 13:10:04;;;;;;;13.73;8.27;;;3.40;69.10;;;;;;4953991;28;20062;-75
2021/12/21 13:12:30;;;;;;;13.30;8.40;;;3.40;69.20;;;;;;4971013;28;20138;-74
2021/12/21 13:14:56;;;;;;;12.27;8.25;;;3.40;69.20;;;;;;4973429;28;20126;-74
2021/12/21 13:17:21;;;;;;;11.82;8.18;;;3.40;69.20;;;;;;4977580;28;20067;-74
2021/12/21 13:19:47;;;;;;;14.48;8.02;;;3.40;69.20;;;;;;4986788;28;20050;-74
2021/12/21 13:22:12;;;;;;;11.77;7.40;;;3.40;69.30;;;;;;4988679;28;20545;-74
2021/12/21 13:24:42;;;;;;;12.77;7.53;;;3.40;69.30;;;;;;4977111;28;20047;-74
2021/12/21 13:27:13;;;;;;;12.38;7.88;;;3.50;69.30;;;;;;4980966;28;20054;-74
2021/12/21 13:29:39;;;;;;;11.05;7.00;;;3.50;69.40;;;;;;4986586;28;20082;-75
2021/12/21 13:32:10;;;;;;;13.13;7.47;;;3.50;69.50;;;;;;4978836;28;20051;-74
2021/12/21 13:34:39;;;;;;;14.35;7.95;;;3.50;69.50;;;;;;4984543;28;20751;-74
2021/12/21 13:37:09;;;;;;;10.55;6.95;;;3.50;69.50;;;;;;4975761;28;20486;-75
2021/12/21 13:39:40;;;;;;;13.43;8.35;;;3.50;69.50;;;;;;4978354;28;20397;-75
2021/12/21 13:42:14;;;;;;;14.43;8.73;;;3.50;69.60;;;;;;4970741;28;20050;-74
2021/12/21 13:44:46;;;;;;;12.63;7.03;;;3.50;69.60;;;;;;4984355;28;20042;-74
2021/12/21 13:47:21;;;;;;;10.38;7.65;;;3.50;69.60;;;;;;4990065;28;20054;-74
2021/12/21 13:50:08;;;;;;;12.07;8.63;;;3.50;69.60;;;;;;4982890;28;20517;-74
2021/12/21 13:52:40;;;;;;;12.50;7.60;;;3.50;69.60;;;;;;4971861;28;20047;-75
2021/12/21 13:55:19;;;;;;;11.13;7.80;;;3.50;69.60;;;;;;4973860;28;20051;-75
2021/12/21 13:57:47;;;;;;;13.10;8.15;;;3.50;69.70;;;;;;4970507;28;20398;-75